sensor_id;sensor_type;location;lat;lon;timestamp;P1;durP1;ratioP1;P2;durP2;ratioP2
6785;SDS011;3430;51.192;6.048;2024-01-16T00:02:09;5.50;;;3.77;;
6785;SDS011;3430;51.192;6.048;2024-01-16T00:04:38;3.90;;;3.60;;
6785;SDS011;3430;51.192;6.048;2024-01-16T00:07:04;4.47;;;3.50;;
6785;SDS011;3430;51.192;6.048;2024-01-16T00:09:32;5.13;;;3.73;;
6785;SDS011;3430;51.192;6.048;2024-01-16T00:11:57;6.07;;;3.73;;
6785;SDS011;3430;51.192;6.048;2024-01-16T00:14:22;4.63;;;3.97;;
6785;SDS011;3430;51.192;6.048;2024-01-16T00:16:48;4.50;;;4.07;;
6785;SDS011;3430;51.192;6.048;2024-01-16T00:19:13;4.67;;;3.50;;
6785;SDS011;3430;51.192;6.048;2024-01-16T00:21:39;5.73;;;3.83;;
6785;SDS011;3430;51.192;6.048;2024-01-16T00:24:05;5.67;;;4.23;;
6785;SDS011;3430;51.192;6.048;2024-01-16T00:26:30;4.40;;;4.00;;
6785;SDS011;3430;51.192;6.048;2024-01-16T00:28:55;4.50;;;4.00;;
6785;SDS011;3430;51.192;6.048;2024-01-16T00:31:21;4.97;;;4.40;;
6785;SDS011;3430;51.192;6.048;2024-01-16T00:33:46;4.50;;;4.10;;
6785;SDS011;3430;51.192;6.048;2024-01-16T00:36:12;4.73;;;3.97;;
6785;SDS011;3430;51.192;6.048;2024-01-16T00:38:37;6.30;;;4.27;;
6785;SDS011;3430;51.192;6.048;2024-01-16T00:41:03;4.30;;;3.90;;
6785;SDS011;3430;51.192;6.048;2024-01-16T00:43:28;4.40;;;4.00;;
6785;SDS011;3430;51.192;6.048;2024-01-16T00:45:53;5.07;;;4.10;;
6785;SDS011;3430;51.192;6.048;2024-01-16T00:48:19;5.77;;;4.40;;
6785;SDS011;3430;51.192;6.048;2024-01-16T00:50:46;6.50;;;4.67;;
6785;SDS011;3430;51.192;6.048;2024-01-16T00:53:11;4.40;;;4.00;;
6785;SDS011;3430;51.192;6.048;2024-01-16T00:55:36;4.17;;;3.77;;
6785;SDS011;3430;51.192;6.048;2024-01-16T00:58:02;7.40;;;4.23;;
6785;SDS011;3430;51.192;6.048;2024-01-16T01:00:27;6.07;;;4.50;;
6785;SDS011;3430;51.192;6.048;2024-01-16T01:02:55;4.73;;;4.20;;
6785;SDS011;3430;51.192;6.048;2024-01-16T01:05:20;5.13;;;4.07;;
6785;SDS011;3430;51.192;6.048;2024-01-16T01:07:45;4.73;;;4.00;;
6785;SDS011;3430;51.192;6.048;2024-01-16T01:10:11;4.40;;;4.00;;
6785;SDS011;3430;51.192;6.048;2024-01-16T01:12:36;4.90;;;4.50;;
6785;SDS011;3430;51.192;6.048;2024-01-16T01:15:02;4.53;;;4.13;;
6785;SDS011;3430;51.192;6.048;2024-01-16T01:17:27;5.67;;;4.37;;
6785;SDS011;3430;51.192;6.048;2024-01-16T01:19:53;6.60;;;3.93;;
6785;SDS011;3430;51.192;6.048;2024-01-16T01:22:18;3.57;;;3.27;;
6785;SDS011;3430;51.192;6.048;2024-01-16T01:24:43;5.23;;;4.20;;
6785;SDS011;3430;51.192;6.048;2024-01-16T01:27:09;6.70;;;4.20;;
6785;SDS011;3430;51.192;6.048;2024-01-16T01:29:34;4.87;;;4.23;;
6785;SDS011;3430;51.192;6.048;2024-01-16T01:32:00;5.43;;;4.87;;
6785;SDS011;3430;51.192;6.048;2024-01-16T01:34:25;5.93;;;4.43;;
6785;SDS011;3430;51.192;6.048;2024-01-16T01:36:50;5.97;;;4.40;;
6785;SDS011;3430;51.192;6.048;2024-01-16T01:39:16;4.47;;;4.07;;
6785;SDS011;3430;51.192;6.048;2024-01-16T01:41:41;5.10;;;4.60;;
6785;SDS011;3430;51.192;6.048;2024-01-16T01:44:07;4.80;;;4.37;;
6785;SDS011;3430;51.192;6.048;2024-01-16T01:46:32;4.40;;;4.00;;
6785;SDS011;3430;51.192;6.048;2024-01-16T01:48:59;5.47;;;4.37;;
6785;SDS011;3430;51.192;6.048;2024-01-16T01:51:24;4.43;;;4.03;;
6785;SDS011;3430;51.192;6.048;2024-01-16T01:53:49;5.33;;;4.60;;
6785;SDS011;3430;51.192;6.048;2024-01-16T01:56:18;5.93;;;4.77;;
6785;SDS011;3430;51.192;6.048;2024-01-16T01:58:44;5.30;;;4.20;;
6785;SDS011;3430;51.192;6.048;2024-01-16T02:01:10;4.73;;;4.20;;
6785;SDS011;3430;51.192;6.048;2024-01-16T02:03:43;7.57;;;4.37;;
6785;SDS011;3430;51.192;6.048;2024-01-16T02:06:09;5.47;;;4.70;;
6785;SDS011;3430;51.192;6.048;2024-01-16T02:08:35;5.20;;;4.20;;
6785;SDS011;3430;51.192;6.048;2024-01-16T02:11:00;5.90;;;4.23;;
6785;SDS011;3430;51.192;6.048;2024-01-16T02:13:26;5.13;;;4.63;;
6785;SDS011;3430;51.192;6.048;2024-01-16T02:15:51;9.60;;;4.40;;
6785;SDS011;3430;51.192;6.048;2024-01-16T02:18:17;6.13;;;4.50;;
6785;SDS011;3430;51.192;6.048;2024-01-16T02:20:43;4.17;;;3.80;;
6785;SDS011;3430;51.192;6.048;2024-01-16T02:23:08;6.37;;;4.20;;
6785;SDS011;3430;51.192;6.048;2024-01-16T02:25:35;4.23;;;3.73;;
6785;SDS011;3430;51.192;6.048;2024-01-16T02:28:00;5.70;;;4.77;;
6785;SDS011;3430;51.192;6.048;2024-01-16T02:30:26;5.40;;;4.30;;
6785;SDS011;3430;51.192;6.048;2024-01-16T02:32:51;4.60;;;4.20;;
6785;SDS011;3430;51.192;6.048;2024-01-16T02:35:17;4.83;;;4.17;;
6785;SDS011;3430;51.192;6.048;2024-01-16T02:37:43;4.77;;;4.03;;
6785;SDS011;3430;51.192;6.048;2024-01-16T02:40:09;6.10;;;4.50;;
6785;SDS011;3430;51.192;6.048;2024-01-16T02:42:34;5.33;;;4.47;;
6785;SDS011;3430;51.192;6.048;2024-01-16T02:45:01;4.40;;;4.00;;
6785;SDS011;3430;51.192;6.048;2024-01-16T02:47:27;4.77;;;4.30;;
6785;SDS011;3430;51.192;6.048;2024-01-16T02:49:52;4.53;;;4.13;;
6785;SDS011;3430;51.192;6.048;2024-01-16T02:52:17;7.83;;;4.57;;
6785;SDS011;3430;51.192;6.048;2024-01-16T02:54:43;4.47;;;3.80;;
6785;SDS011;3430;51.192;6.048;2024-01-16T02:57:09;4.60;;;4.20;;
6785;SDS011;3430;51.192;6.048;2024-01-16T02:59:34;4.60;;;4.20;;
6785;SDS011;3430;51.192;6.048;2024-01-16T03:02:00;4.93;;;4.30;;
6785;SDS011;3430;51.192;6.048;2024-01-16T03:04:25;5.40;;;3.83;;
6785;SDS011;3430;51.192;6.048;2024-01-16T03:06:51;3.70;;;3.40;;
6785;SDS011;3430;51.192;6.048;2024-01-16T03:09:16;6.17;;;4.33;;
6785;SDS011;3430;51.192;6.048;2024-01-16T03:11:41;4.00;;;3.70;;
6785;SDS011;3430;51.192;6.048;2024-01-16T03:14:07;4.70;;;4.30;;
6785;SDS011;3430;51.192;6.048;2024-01-16T03:16:32;4.73;;;4.33;;
6785;SDS011;3430;51.192;6.048;2024-01-16T03:18:57;4.17;;;3.67;;
6785;SDS011;3430;51.192;6.048;2024-01-16T03:21:23;5.43;;;4.13;;
6785;SDS011;3430;51.192;6.048;2024-01-16T03:23:48;4.20;;;3.80;;
6785;SDS011;3430;51.192;6.048;2024-01-16T03:26:14;4.83;;;4.43;;
6785;SDS011;3430;51.192;6.048;2024-01-16T03:28:39;5.50;;;4.00;;
6785;SDS011;3430;51.192;6.048;2024-01-16T03:31:05;6.13;;;4.47;;
6785;SDS011;3430;51.192;6.048;2024-01-16T03:33:30;4.37;;;3.97;;
6785;SDS011;3430;51.192;6.048;2024-01-16T03:35:55;5.50;;;4.00;;
6785;SDS011;3430;51.192;6.048;2024-01-16T03:38:21;5.40;;;4.03;;
6785;SDS011;3430;51.192;6.048;2024-01-16T03:40:46;4.53;;;4.13;;
6785;SDS011;3430;51.192;6.048;2024-01-16T03:43:11;4.70;;;4.30;;
6785;SDS011;3430;51.192;6.048;2024-01-16T03:45:37;4.97;;;4.23;;
6785;SDS011;3430;51.192;6.048;2024-01-16T03:48:02;5.53;;;3.87;;
6785;SDS011;3430;51.192;6.048;2024-01-16T03:50:28;6.67;;;4.67;;
6785;SDS011;3430;51.192;6.048;2024-01-16T03:52:53;4.40;;;4.00;;
6785;SDS011;3430;51.192;6.048;2024-01-16T03:55:19;4.47;;;4.07;;
6785;SDS011;3430;51.192;6.048;2024-01-16T03:57:44;5.03;;;3.87;;
6785;SDS011;3430;51.192;6.048;2024-01-16T04:00:11;4.10;;;3.70;;
6785;SDS011;3430;51.192;6.048;2024-01-16T04:02:37;5.00;;;4.30;;
6785;SDS011;3430;51.192;6.048;2024-01-16T04:05:04;5.00;;;4.60;;
6785;SDS011;3430;51.192;6.048;2024-01-16T04:07:30;4.63;;;4.23;;
6785;SDS011;3430;51.192;6.048;2024-01-16T04:09:56;6.13;;;4.60;;
6785;SDS011;3430;51.192;6.048;2024-01-16T04:12:21;6.60;;;4.43;;
6785;SDS011;3430;51.192;6.048;2024-01-16T04:14:46;5.83;;;4.57;;
6785;SDS011;3430;51.192;6.048;2024-01-16T04:17:12;4.83;;;4.43;;
6785;SDS011;3430;51.192;6.048;2024-01-16T04:19:37;5.87;;;4.33;;
6785;SDS011;3430;51.192;6.048;2024-01-16T04:22:02;4.47;;;3.90;;
6785;SDS011;3430;51.192;6.048;2024-01-16T04:24:29;6.60;;;4.10;;
6785;SDS011;3430;51.192;6.048;2024-01-16T04:26:55;5.77;;;4.47;;
6785;SDS011;3430;51.192;6.048;2024-01-16T04:29:20;5.17;;;4.60;;
6785;SDS011;3430;51.192;6.048;2024-01-16T04:31:45;4.93;;;4.07;;
6785;SDS011;3430;51.192;6.048;2024-01-16T04:34:11;6.10;;;3.97;;
6785;SDS011;3430;51.192;6.048;2024-01-16T04:36:36;8.10;;;4.50;;
6785;SDS011;3430;51.192;6.048;2024-01-16T04:39:01;5.27;;;4.37;;
6785;SDS011;3430;51.192;6.048;2024-01-16T04:41:28;5.93;;;3.90;;
6785;SDS011;3430;51.192;6.048;2024-01-16T04:43:53;6.20;;;3.97;;
6785;SDS011;3430;51.192;6.048;2024-01-16T04:46:19;6.53;;;4.53;;
6785;SDS011;3430;51.192;6.048;2024-01-16T04:48:44;5.60;;;4.07;;
6785;SDS011;3430;51.192;6.048;2024-01-16T04:51:09;5.13;;;4.63;;
6785;SDS011;3430;51.192;6.048;2024-01-16T04:53:35;5.17;;;4.50;;
6785;SDS011;3430;51.192;6.048;2024-01-16T04:56:00;7.17;;;4.57;;
6785;SDS011;3430;51.192;6.048;2024-01-16T04:58:25;5.70;;;3.97;;
6785;SDS011;3430;51.192;6.048;2024-01-16T05:00:51;5.03;;;4.17;;
6785;SDS011;3430;51.192;6.048;2024-01-16T05:03:16;4.90;;;3.97;;
6785;SDS011;3430;51.192;6.048;2024-01-16T05:05:42;5.90;;;4.40;;
6785;SDS011;3430;51.192;6.048;2024-01-16T05:08:07;4.70;;;3.83;;
6785;SDS011;3430;51.192;6.048;2024-01-16T05:10:32;5.70;;;4.10;;
6785;SDS011;3430;51.192;6.048;2024-01-16T05:12:58;4.30;;;3.70;;
6785;SDS011;3430;51.192;6.048;2024-01-16T05:15:23;5.53;;;3.90;;
6785;SDS011;3430;51.192;6.048;2024-01-16T05:17:48;8.00;;;4.60;;
6785;SDS011;3430;51.192;6.048;2024-01-16T05:20:14;4.27;;;3.30;;
6785;SDS011;3430;51.192;6.048;2024-01-16T05:22:39;5.90;;;4.13;;
6785;SDS011;3430;51.192;6.048;2024-01-16T05:25:05;5.87;;;3.90;;
6785;SDS011;3430;51.192;6.048;2024-01-16T05:27:32;4.23;;;3.83;;
6785;SDS011;3430;51.192;6.048;2024-01-16T05:29:57;4.60;;;3.80;;
6785;SDS011;3430;51.192;6.048;2024-01-16T05:32:23;5.33;;;4.47;;
6785;SDS011;3430;51.192;6.048;2024-01-16T05:34:48;7.33;;;4.27;;
6785;SDS011;3430;51.192;6.048;2024-01-16T05:37:13;5.43;;;4.13;;
6785;SDS011;3430;51.192;6.048;2024-01-16T05:39:39;7.17;;;4.57;;
6785;SDS011;3430;51.192;6.048;2024-01-16T05:42:04;4.20;;;3.80;;
6785;SDS011;3430;51.192;6.048;2024-01-16T05:44:30;6.40;;;4.10;;
6785;SDS011;3430;51.192;6.048;2024-01-16T05:46:55;4.80;;;4.40;;
6785;SDS011;3430;51.192;6.048;2024-01-16T05:49:21;5.57;;;4.20;;
6785;SDS011;3430;51.192;6.048;2024-01-16T05:51:46;4.43;;;3.73;;
6785;SDS011;3430;51.192;6.048;2024-01-16T05:54:11;6.97;;;3.80;;
6785;SDS011;3430;51.192;6.048;2024-01-16T05:56:36;4.83;;;4.10;;
6785;SDS011;3430;51.192;6.048;2024-01-16T05:59:02;4.47;;;3.90;;
6785;SDS011;3430;51.192;6.048;2024-01-16T06:01:27;4.77;;;4.27;;
6785;SDS011;3430;51.192;6.048;2024-01-16T06:03:53;5.20;;;4.20;;
6785;SDS011;3430;51.192;6.048;2024-01-16T06:06:18;4.90;;;3.80;;
6785;SDS011;3430;51.192;6.048;2024-01-16T06:08:44;4.60;;;4.00;;
6785;SDS011;3430;51.192;6.048;2024-01-16T06:11:09;5.03;;;4.40;;
6785;SDS011;3430;51.192;6.048;2024-01-16T06:13:36;6.77;;;4.23;;
6785;SDS011;3430;51.192;6.048;2024-01-16T06:16:01;4.60;;;4.10;;
6785;SDS011;3430;51.192;6.048;2024-01-16T06:18:28;5.13;;;3.80;;
6785;SDS011;3430;51.192;6.048;2024-01-16T06:20:53;4.27;;;3.87;;
6785;SDS011;3430;51.192;6.048;2024-01-16T06:23:18;4.40;;;4.00;;
6785;SDS011;3430;51.192;6.048;2024-01-16T06:25:44;5.30;;;4.00;;
6785;SDS011;3430;51.192;6.048;2024-01-16T06:28:09;6.43;;;4.20;;
6785;SDS011;3430;51.192;6.048;2024-01-16T06:30:35;4.70;;;4.27;;
6785;SDS011;3430;51.192;6.048;2024-01-16T06:33:01;4.73;;;4.30;;
6785;SDS011;3430;51.192;6.048;2024-01-16T06:35:26;5.13;;;4.33;;
6785;SDS011;3430;51.192;6.048;2024-01-16T06:37:52;4.73;;;3.80;;
6785;SDS011;3430;51.192;6.048;2024-01-16T06:40:17;5.10;;;4.20;;
6785;SDS011;3430;51.192;6.048;2024-01-16T06:42:43;4.10;;;3.70;;
6785;SDS011;3430;51.192;6.048;2024-01-16T06:45:09;7.57;;;3.63;;
6785;SDS011;3430;51.192;6.048;2024-01-16T06:47:35;7.80;;;4.87;;
6785;SDS011;3430;51.192;6.048;2024-01-16T06:50:00;4.30;;;3.90;;
6785;SDS011;3430;51.192;6.048;2024-01-16T06:52:26;4.30;;;3.90;;
6785;SDS011;3430;51.192;6.048;2024-01-16T06:54:52;5.43;;;4.57;;
6785;SDS011;3430;51.192;6.048;2024-01-16T06:57:18;4.83;;;4.17;;
6785;SDS011;3430;51.192;6.048;2024-01-16T06:59:44;6.80;;;3.93;;
6785;SDS011;3430;51.192;6.048;2024-01-16T07:02:10;5.73;;;4.33;;
6785;SDS011;3430;51.192;6.048;2024-01-16T07:04:37;6.03;;;4.37;;
6785;SDS011;3430;51.192;6.048;2024-01-16T07:07:06;4.80;;;4.30;;
6785;SDS011;3430;51.192;6.048;2024-01-16T07:09:34;4.50;;;4.00;;
6785;SDS011;3430;51.192;6.048;2024-01-16T07:12:00;4.43;;;3.97;;
6785;SDS011;3430;51.192;6.048;2024-01-16T07:14:26;4.90;;;4.40;;
6785;SDS011;3430;51.192;6.048;2024-01-16T07:16:53;6.00;;;4.47;;
6785;SDS011;3430;51.192;6.048;2024-01-16T07:19:19;7.97;;;4.67;;
6785;SDS011;3430;51.192;6.048;2024-01-16T07:21:45;6.50;;;4.50;;
6785;SDS011;3430;51.192;6.048;2024-01-16T07:24:11;6.27;;;5.17;;
6785;SDS011;3430;51.192;6.048;2024-01-16T07:26:38;7.57;;;5.10;;
6785;SDS011;3430;51.192;6.048;2024-01-16T07:29:07;8.57;;;5.53;;
6785;SDS011;3430;51.192;6.048;2024-01-16T07:31:34;7.23;;;5.37;;
6785;SDS011;3430;51.192;6.048;2024-01-16T07:34:01;11.67;;;5.77;;
6785;SDS011;3430;51.192;6.048;2024-01-16T07:36:28;8.80;;;5.77;;
6785;SDS011;3430;51.192;6.048;2024-01-16T07:38:54;9.00;;;5.80;;
6785;SDS011;3430;51.192;6.048;2024-01-16T07:41:20;9.07;;;5.80;;
6785;SDS011;3430;51.192;6.048;2024-01-16T07:43:46;9.70;;;6.33;;
6785;SDS011;3430;51.192;6.048;2024-01-16T07:46:12;9.43;;;6.93;;
6785;SDS011;3430;51.192;6.048;2024-01-16T07:48:38;10.23;;;6.23;;
6785;SDS011;3430;51.192;6.048;2024-01-16T07:51:05;10.97;;;6.93;;
6785;SDS011;3430;51.192;6.048;2024-01-16T07:53:31;12.33;;;7.43;;
6785;SDS011;3430;51.192;6.048;2024-01-16T07:55:57;14.67;;;7.53;;
6785;SDS011;3430;51.192;6.048;2024-01-16T07:58:23;11.07;;;7.90;;
6785;SDS011;3430;51.192;6.048;2024-01-16T08:00:49;14.97;;;7.70;;
6785;SDS011;3430;51.192;6.048;2024-01-16T08:03:16;12.37;;;7.60;;
6785;SDS011;3430;51.192;6.048;2024-01-16T08:05:42;12.27;;;8.50;;
6785;SDS011;3430;51.192;6.048;2024-01-16T08:08:08;15.37;;;8.47;;
6785;SDS011;3430;51.192;6.048;2024-01-16T08:10:43;15.07;;;8.13;;
6785;SDS011;3430;51.192;6.048;2024-01-16T08:13:09;12.83;;;8.43;;
6785;SDS011;3430;51.192;6.048;2024-01-16T08:15:36;15.00;;;9.13;;
6785;SDS011;3430;51.192;6.048;2024-01-16T08:18:02;23.40;;;9.13;;
6785;SDS011;3430;51.192;6.048;2024-01-16T08:20:29;18.90;;;11.23;;
6785;SDS011;3430;51.192;6.048;2024-01-16T08:22:56;17.77;;;11.37;;
6785;SDS011;3430;51.192;6.048;2024-01-16T08:25:22;22.57;;;11.90;;
6785;SDS011;3430;51.192;6.048;2024-01-16T08:27:48;22.43;;;12.27;;
6785;SDS011;3430;51.192;6.048;2024-01-16T08:30:13;37.70;;;17.43;;
6785;SDS011;3430;51.192;6.048;2024-01-16T08:32:39;26.10;;;14.97;;
6785;SDS011;3430;51.192;6.048;2024-01-16T08:35:06;25.27;;;15.47;;
6785;SDS011;3430;51.192;6.048;2024-01-16T08:37:32;29.30;;;16.57;;
6785;SDS011;3430;51.192;6.048;2024-01-16T08:40:00;32.37;;;16.77;;
6785;SDS011;3430;51.192;6.048;2024-01-16T08:42:26;34.30;;;17.70;;
6785;SDS011;3430;51.192;6.048;2024-01-16T08:44:52;31.87;;;18.03;;
6785;SDS011;3430;51.192;6.048;2024-01-16T08:47:18;34.70;;;18.60;;
6785;SDS011;3430;51.192;6.048;2024-01-16T08:49:45;31.17;;;18.40;;
6785;SDS011;3430;51.192;6.048;2024-01-16T08:52:11;35.20;;;17.87;;
6785;SDS011;3430;51.192;6.048;2024-01-16T08:54:37;31.67;;;17.90;;
6785;SDS011;3430;51.192;6.048;2024-01-16T08:57:06;34.43;;;18.20;;
6785;SDS011;3430;51.192;6.048;2024-01-16T08:59:31;34.77;;;17.70;;
6785;SDS011;3430;51.192;6.048;2024-01-16T09:01:57;33.13;;;17.53;;
6785;SDS011;3430;51.192;6.048;2024-01-16T09:04:23;44.77;;;19.43;;
6785;SDS011;3430;51.192;6.048;2024-01-16T09:06:49;34.43;;;19.50;;
6785;SDS011;3430;51.192;6.048;2024-01-16T09:09:18;32.83;;;19.27;;
6785;SDS011;3430;51.192;6.048;2024-01-16T09:11:44;41.30;;;20.20;;
6785;SDS011;3430;51.192;6.048;2024-01-16T09:14:11;33.07;;;19.13;;
6785;SDS011;3430;51.192;6.048;2024-01-16T09:16:37;37.70;;;19.63;;
6785;SDS011;3430;51.192;6.048;2024-01-16T09:19:04;33.43;;;18.97;;
6785;SDS011;3430;51.192;6.048;2024-01-16T09:21:30;35.17;;;19.10;;
6785;SDS011;3430;51.192;6.048;2024-01-16T09:23:55;38.60;;;20.77;;
6785;SDS011;3430;51.192;6.048;2024-01-16T09:26:21;33.83;;;18.70;;
6785;SDS011;3430;51.192;6.048;2024-01-16T09:28:46;37.80;;;19.80;;
6785;SDS011;3430;51.192;6.048;2024-01-16T09:31:12;36.90;;;20.20;;
6785;SDS011;3430;51.192;6.048;2024-01-16T09:33:38;32.30;;;18.93;;
6785;SDS011;3430;51.192;6.048;2024-01-16T09:36:05;37.37;;;18.47;;
6785;SDS011;3430;51.192;6.048;2024-01-16T09:38:32;34.80;;;19.00;;
6785;SDS011;3430;51.192;6.048;2024-01-16T09:40:58;41.23;;;21.07;;
6785;SDS011;3430;51.192;6.048;2024-01-16T09:43:25;37.10;;;20.47;;
6785;SDS011;3430;51.192;6.048;2024-01-16T09:45:52;38.37;;;20.30;;
6785;SDS011;3430;51.192;6.048;2024-01-16T09:48:19;38.53;;;19.53;;
6785;SDS011;3430;51.192;6.048;2024-01-16T09:50:46;40.13;;;20.17;;
6785;SDS011;3430;51.192;6.048;2024-01-16T09:53:12;35.97;;;19.63;;
6785;SDS011;3430;51.192;6.048;2024-01-16T09:55:38;33.37;;;20.30;;
6785;SDS011;3430;51.192;6.048;2024-01-16T09:58:05;36.50;;;20.50;;
6785;SDS011;3430;51.192;6.048;2024-01-16T10:00:31;40.47;;;19.90;;
6785;SDS011;3430;51.192;6.048;2024-01-16T10:02:57;35.77;;;20.07;;
6785;SDS011;3430;51.192;6.048;2024-01-16T10:05:25;41.17;;;21.03;;
6785;SDS011;3430;51.192;6.048;2024-01-16T10:07:51;35.30;;;19.20;;
6785;SDS011;3430;51.192;6.048;2024-01-16T10:10:17;38.13;;;20.30;;
6785;SDS011;3430;51.192;6.048;2024-01-16T10:12:43;36.47;;;19.27;;
6785;SDS011;3430;51.192;6.048;2024-01-16T10:15:09;32.00;;;19.63;;
6785;SDS011;3430;51.192;6.048;2024-01-16T10:17:36;36.97;;;19.53;;
6785;SDS011;3430;51.192;6.048;2024-01-16T10:20:03;39.47;;;19.70;;
6785;SDS011;3430;51.192;6.048;2024-01-16T10:22:31;34.93;;;19.03;;
6785;SDS011;3430;51.192;6.048;2024-01-16T10:25:07;36.33;;;19.43;;
6785;SDS011;3430;51.192;6.048;2024-01-16T10:27:35;38.07;;;20.90;;
6785;SDS011;3430;51.192;6.048;2024-01-16T10:30:02;36.23;;;19.17;;
6785;SDS011;3430;51.192;6.048;2024-01-16T10:32:30;38.47;;;20.53;;
6785;SDS011;3430;51.192;6.048;2024-01-16T10:35:05;32.23;;;19.67;;
6785;SDS011;3430;51.192;6.048;2024-01-16T10:40:20;38.60;;;19.97;;
6785;SDS011;3430;51.192;6.048;2024-01-16T10:43:01;33.63;;;19.17;;
6785;SDS011;3430;51.192;6.048;2024-01-16T10:45:27;34.73;;;18.13;;
6785;SDS011;3430;51.192;6.048;2024-01-16T10:48:06;30.90;;;18.20;;
6785;SDS011;3430;51.192;6.048;2024-01-16T10:50:33;32.93;;;17.87;;
6785;SDS011;3430;51.192;6.048;2024-01-16T10:53:03;36.00;;;19.30;;
6785;SDS011;3430;51.192;6.048;2024-01-16T10:55:30;31.37;;;17.67;;
6785;SDS011;3430;51.192;6.048;2024-01-16T10:57:56;32.90;;;18.13;;
6785;SDS011;3430;51.192;6.048;2024-01-16T11:00:22;30.03;;;16.50;;
6785;SDS011;3430;51.192;6.048;2024-01-16T11:05:15;35.83;;;18.03;;
6785;SDS011;3430;51.192;6.048;2024-01-16T11:07:41;30.60;;;16.73;;
6785;SDS011;3430;51.192;6.048;2024-01-16T11:10:08;31.40;;;18.80;;
6785;SDS011;3430;51.192;6.048;2024-01-16T11:12:35;34.77;;;18.27;;
6785;SDS011;3430;51.192;6.048;2024-01-16T11:15:01;33.23;;;17.93;;
6785;SDS011;3430;51.192;6.048;2024-01-16T11:17:33;33.57;;;17.77;;
6785;SDS011;3430;51.192;6.048;2024-01-16T11:20:00;33.57;;;17.80;;
6785;SDS011;3430;51.192;6.048;2024-01-16T11:22:27;30.50;;;17.80;;
6785;SDS011;3430;51.192;6.048;2024-01-16T11:27:35;30.60;;;17.57;;
6785;SDS011;3430;51.192;6.048;2024-01-16T11:30:01;32.47;;;18.13;;
6785;SDS011;3430;51.192;6.048;2024-01-16T11:32:37;31.00;;;18.17;;
6785;SDS011;3430;51.192;6.048;2024-01-16T11:35:07;33.17;;;18.00;;
6785;SDS011;3430;51.192;6.048;2024-01-16T11:37:33;33.60;;;17.17;;
6785;SDS011;3430;51.192;6.048;2024-01-16T11:42:50;36.27;;;17.00;;
6785;SDS011;3430;51.192;6.048;2024-01-16T11:48:11;35.90;;;18.73;;
6785;SDS011;3430;51.192;6.048;2024-01-16T11:50:37;35.87;;;15.73;;
6785;SDS011;3430;51.192;6.048;2024-01-16T11:53:04;30.30;;;16.47;;
6785;SDS011;3430;51.192;6.048;2024-01-16T11:55:33;31.63;;;16.87;;
6785;SDS011;3430;51.192;6.048;2024-01-16T12:00:47;30.17;;;15.97;;
6785;SDS011;3430;51.192;6.048;2024-01-16T12:03:18;31.20;;;16.63;;
6785;SDS011;3430;51.192;6.048;2024-01-16T12:05:56;26.97;;;16.53;;
6785;SDS011;3430;51.192;6.048;2024-01-16T12:08:23;29.77;;;16.77;;
6785;SDS011;3430;51.192;6.048;2024-01-16T12:10:49;28.73;;;16.57;;
6785;SDS011;3430;51.192;6.048;2024-01-16T12:13:15;31.33;;;17.17;;
6785;SDS011;3430;51.192;6.048;2024-01-16T12:15:42;28.37;;;16.07;;
6785;SDS011;3430;51.192;6.048;2024-01-16T12:18:08;26.03;;;15.57;;
6785;SDS011;3430;51.192;6.048;2024-01-16T12:20:38;27.00;;;16.30;;
6785;SDS011;3430;51.192;6.048;2024-01-16T12:23:05;26.17;;;15.57;;
6785;SDS011;3430;51.192;6.048;2024-01-16T12:25:32;38.27;;;15.83;;
6785;SDS011;3430;51.192;6.048;2024-01-16T12:27:58;27.63;;;15.70;;
6785;SDS011;3430;51.192;6.048;2024-01-16T12:30:25;27.73;;;15.10;;
6785;SDS011;3430;51.192;6.048;2024-01-16T12:32:51;30.97;;;15.87;;
6785;SDS011;3430;51.192;6.048;2024-01-16T12:35:21;30.80;;;16.70;;
6785;SDS011;3430;51.192;6.048;2024-01-16T12:38:01;27.13;;;15.57;;
6785;SDS011;3430;51.192;6.048;2024-01-16T12:40:28;30.27;;;16.63;;
6785;SDS011;3430;51.192;6.048;2024-01-16T12:42:56;29.30;;;15.33;;
6785;SDS011;3430;51.192;6.048;2024-01-16T12:45:22;30.67;;;16.77;;
6785;SDS011;3430;51.192;6.048;2024-01-16T12:47:52;24.73;;;15.10;;
6785;SDS011;3430;51.192;6.048;2024-01-16T12:50:22;29.47;;;16.10;;
6785;SDS011;3430;51.192;6.048;2024-01-16T12:52:49;28.00;;;16.33;;
6785;SDS011;3430;51.192;6.048;2024-01-16T12:55:15;26.03;;;16.47;;
6785;SDS011;3430;51.192;6.048;2024-01-16T12:57:42;26.80;;;14.90;;
6785;SDS011;3430;51.192;6.048;2024-01-16T13:00:23;26.73;;;15.13;;
6785;SDS011;3430;51.192;6.048;2024-01-16T13:02:51;25.83;;;15.07;;
6785;SDS011;3430;51.192;6.048;2024-01-16T13:05:18;28.13;;;14.97;;
6785;SDS011;3430;51.192;6.048;2024-01-16T13:07:44;26.70;;;15.83;;
6785;SDS011;3430;51.192;6.048;2024-01-16T13:10:11;23.17;;;14.20;;
6785;SDS011;3430;51.192;6.048;2024-01-16T13:12:37;25.00;;;15.40;;
6785;SDS011;3430;51.192;6.048;2024-01-16T13:15:04;22.37;;;14.60;;
6785;SDS011;3430;51.192;6.048;2024-01-16T13:17:34;25.40;;;14.50;;
6785;SDS011;3430;51.192;6.048;2024-01-16T13:20:02;26.33;;;14.10;;
6785;SDS011;3430;51.192;6.048;2024-01-16T13:22:35;26.20;;;15.60;;
6785;SDS011;3430;51.192;6.048;2024-01-16T13:25:02;26.07;;;13.70;;
6785;SDS011;3430;51.192;6.048;2024-01-16T13:27:28;25.17;;;14.27;;
6785;SDS011;3430;51.192;6.048;2024-01-16T13:29:59;21.47;;;13.00;;
6785;SDS011;3430;51.192;6.048;2024-01-16T13:32:26;24.20;;;13.90;;
6785;SDS011;3430;51.192;6.048;2024-01-16T13:34:53;26.70;;;13.50;;
6785;SDS011;3430;51.192;6.048;2024-01-16T13:37:21;25.87;;;13.67;;
6785;SDS011;3430;51.192;6.048;2024-01-16T13:39:50;21.60;;;13.43;;
6785;SDS011;3430;51.192;6.048;2024-01-16T13:42:17;21.07;;;12.97;;
6785;SDS011;3430;51.192;6.048;2024-01-16T13:44:44;22.17;;;13.80;;
6785;SDS011;3430;51.192;6.048;2024-01-16T13:47:12;22.93;;;13.83;;
6785;SDS011;3430;51.192;6.048;2024-01-16T13:49:39;21.77;;;12.17;;
6785;SDS011;3430;51.192;6.048;2024-01-16T13:52:06;24.17;;;13.07;;
6785;SDS011;3430;51.192;6.048;2024-01-16T13:54:36;25.13;;;13.27;;
6785;SDS011;3430;51.192;6.048;2024-01-16T13:57:06;20.07;;;12.23;;
6785;SDS011;3430;51.192;6.048;2024-01-16T13:59:35;23.80;;;13.03;;
6785;SDS011;3430;51.192;6.048;2024-01-16T14:02:06;18.30;;;12.37;;
6785;SDS011;3430;51.192;6.048;2024-01-16T14:04:35;18.80;;;12.50;;
6785;SDS011;3430;51.192;6.048;2024-01-16T14:07:04;20.33;;;13.17;;
6785;SDS011;3430;51.192;6.048;2024-01-16T14:09:38;23.63;;;13.70;;
6785;SDS011;3430;51.192;6.048;2024-01-16T14:12:09;20.40;;;12.93;;
6785;SDS011;3430;51.192;6.048;2024-01-16T14:14:37;24.67;;;12.67;;
6785;SDS011;3430;51.192;6.048;2024-01-16T14:17:05;20.60;;;12.50;;
6785;SDS011;3430;51.192;6.048;2024-01-16T14:19:34;22.17;;;12.67;;
6785;SDS011;3430;51.192;6.048;2024-01-16T14:22:05;15.93;;;11.10;;
6785;SDS011;3430;51.192;6.048;2024-01-16T14:24:36;21.80;;;12.83;;
6785;SDS011;3430;51.192;6.048;2024-01-16T14:27:06;19.03;;;11.60;;
6785;SDS011;3430;51.192;6.048;2024-01-16T14:29:36;23.13;;;12.07;;
6785;SDS011;3430;51.192;6.048;2024-01-16T14:32:05;17.60;;;11.93;;
6785;SDS011;3430;51.192;6.048;2024-01-16T14:34:32;17.63;;;12.33;;
6785;SDS011;3430;51.192;6.048;2024-01-16T14:37:00;19.63;;;11.80;;
6785;SDS011;3430;51.192;6.048;2024-01-16T14:39:26;19.83;;;12.30;;
6785;SDS011;3430;51.192;6.048;2024-01-16T14:41:56;20.80;;;11.20;;
6785;SDS011;3430;51.192;6.048;2024-01-16T14:44:29;21.57;;;13.10;;
6785;SDS011;3430;51.192;6.048;2024-01-16T14:46:55;23.00;;;11.63;;
6785;SDS011;3430;51.192;6.048;2024-01-16T14:49:22;20.33;;;11.67;;
6785;SDS011;3430;51.192;6.048;2024-01-16T14:51:53;17.80;;;10.93;;
6785;SDS011;3430;51.192;6.048;2024-01-16T14:54:27;15.80;;;11.10;;
6785;SDS011;3430;51.192;6.048;2024-01-16T14:56:56;19.07;;;11.80;;
6785;SDS011;3430;51.192;6.048;2024-01-16T14:59:29;17.73;;;11.10;;
6785;SDS011;3430;51.192;6.048;2024-01-16T15:02:02;18.37;;;10.90;;
6785;SDS011;3430;51.192;6.048;2024-01-16T15:04:41;18.13;;;11.20;;
6785;SDS011;3430;51.192;6.048;2024-01-16T15:07:12;16.60;;;10.50;;
6785;SDS011;3430;51.192;6.048;2024-01-16T15:09:42;20.27;;;11.27;;
6785;SDS011;3430;51.192;6.048;2024-01-16T15:12:13;18.43;;;11.33;;
6785;SDS011;3430;51.192;6.048;2024-01-16T15:14:41;20.83;;;11.63;;
6785;SDS011;3430;51.192;6.048;2024-01-16T15:17:09;20.10;;;11.77;;